createdAt,value
2016-12-07T00:00:41.321Z,2.85
2016-12-07T00:01:41.339Z,2.82
2016-12-07T00:02:41.358Z,2.84
2016-12-07T00:03:41.377Z,2.79
2016-12-07T00:04:41.382Z,2.87
2016-12-07T00:05:56.324Z,2.92
2016-12-07T00:06:56.339Z,2.79
2016-12-07T00:07:41.442Z,2.75
2016-12-07T00:08:41.442Z,2.79
2016-12-07T00:09:41.466Z,2.77
2016-12-07T00:10:41.481Z,2.75
2016-12-07T00:11:41.495Z,2.77
2016-12-07T00:12:41.518Z,2.77
2016-12-07T00:13:41.531Z,2.78
2016-12-07T00:14:41.546Z,2.82
2016-12-07T00:15:41.565Z,2.79
2016-12-07T00:16:41.577Z,2.72
2016-12-07T00:17:41.598Z,2.82
2016-12-07T00:18:41.608Z,2.82
2016-12-07T00:19:41.628Z,2.77
2016-12-07T00:20:56.567Z,2.77
2016-12-07T00:21:41.664Z,2.75
2016-12-07T00:22:56.600Z,2.82
2016-12-07T00:23:41.693Z,2.82
2016-12-07T00:25:41.726Z,2.74
2016-12-07T00:26:41.742Z,2.81
2016-12-07T00:27:41.758Z,2.79
2016-12-07T00:28:41.772Z,2.78
2016-12-07T00:29:42.090Z,2.74
2016-12-07T00:30:41.805Z,2.63
2016-12-07T00:31:41.823Z,2.77
2016-12-07T00:32:41.842Z,2.69
2016-12-07T00:33:41.853Z,2.69
2016-12-07T00:34:41.876Z,2.78
2016-12-07T00:35:41.896Z,2.79
2016-12-07T00:36:41.912Z,2.81
2016-12-07T00:38:56.885Z,2.82
2016-12-07T00:39:41.954Z,2.69
2016-12-07T00:40:42.279Z,2.78
2016-12-07T00:41:41.978Z,2.67
2016-12-07T00:42:41.997Z,2.69
2016-12-07T00:43:42.021Z,2.66
2016-12-07T00:44:42.397Z,2.81
2016-12-07T00:45:42.047Z,2.71
2016-12-07T00:46:42.069Z,2.71
2016-12-07T00:47:42.087Z,2.72
2016-12-07T00:48:42.104Z,2.69
2016-12-07T00:49:42.116Z,2.63
2016-12-07T00:50:42.128Z,2.72
2016-12-07T00:51:42.149Z,2.72
2016-12-07T00:52:42.167Z,2.67
2016-12-07T00:53:57.103Z,2.69
2016-12-07T00:54:42.199Z,2.72
2016-12-07T00:55:42.220Z,2.66
2016-12-07T00:56:42.226Z,2.67
2016-12-07T00:58:42.267Z,2.69
2016-12-07T00:59:42.274Z,2.64
2016-12-07T01:00:42.293Z,2.69
2016-12-07T01:01:42.311Z,2.72
2016-12-07T01:02:42.325Z,2.57
2016-12-07T01:03:42.343Z,2.69
2016-12-07T01:04:42.363Z,2.72
2016-12-07T01:06:42.395Z,2.72
2016-12-07T01:07:57.333Z,2.56
2016-12-07T01:08:42.426Z,2.59
2016-12-07T01:09:42.443Z,2.71
2016-12-07T01:10:42.468Z,2.79
2016-12-07T01:11:42.469Z,2.75
2016-12-07T01:12:42.541Z,2.78
2016-12-07T01:14:42.548Z,2.81
2016-12-07T01:15:42.540Z,2.74
2016-12-07T01:16:42.556Z,2.78
2016-12-07T01:17:42.571Z,2.81
2016-12-07T01:18:42.592Z,2.71
2016-12-07T01:19:42.603Z,2.78
2016-12-07T01:20:42.618Z,2.64
2016-12-07T01:22:42.650Z,2.71
2016-12-07T01:23:42.669Z,2.71
2016-12-07T01:24:42.683Z,2.82
2016-12-07T01:25:57.620Z,2.77
2016-12-07T01:26:42.724Z,2.77
2016-12-07T01:27:42.735Z,2.72
2016-12-07T01:28:57.668Z,2.66
2016-12-07T01:29:42.772Z,2.63
2016-12-07T01:30:42.784Z,2.69
2016-12-07T01:31:42.802Z,2.81
2016-12-07T01:32:42.813Z,2.71
2016-12-07T01:33:42.833Z,2.79
2016-12-07T01:34:42.998Z,2.71
2016-12-07T01:35:42.863Z,2.74
2016-12-07T01:36:42.879Z,2.75
2016-12-07T01:37:42.891Z,2.74
2016-12-07T01:39:42.924Z,2.74
2016-12-07T01:40:43.241Z,2.72
2016-12-07T01:41:57.881Z,2.72
2016-12-07T01:42:42.981Z,2.71
2016-12-07T01:43:57.911Z,2.71
2016-12-07T01:44:43.007Z,2.74
2016-12-07T01:45:43.330Z,2.84
2016-12-07T01:46:43.045Z,2.77
2016-12-07T01:47:43.058Z,2.82
2016-12-07T01:48:43.072Z,2.82
2016-12-07T01:49:43.091Z,2.69
2016-12-07T01:50:43.100Z,2.79
2016-12-07T01:51:43.116Z,2.84
2016-12-07T01:52:43.132Z,2.9
2016-12-07T01:53:43.156Z,2.78
2016-12-07T01:54:43.172Z,2.85
2016-12-07T01:55:43.210Z,2.81
2016-12-07T01:56:43.195Z,2.85
2016-12-07T01:57:58.136Z,2.75
2016-12-07T01:58:43.242Z,2.77
2016-12-07T02:00:43.570Z,2.82
2016-12-07T02:01:43.277Z,2.84
2016-12-07T02:02:43.294Z,2.77
2016-12-07T02:03:43.309Z,2.75
2016-12-07T02:04:43.326Z,2.77
2016-12-07T02:05:43.343Z,2.75
2016-12-07T02:06:43.361Z,2.89
2016-12-07T02:07:43.378Z,2.85
2016-12-07T02:08:43.383Z,2.89
2016-12-07T02:09:43.407Z,2.81
2016-12-07T02:10:43.427Z,2.77
2016-12-07T02:11:58.363Z,2.81
2016-12-07T02:12:43.456Z,2.78
2016-12-07T02:13:58.396Z,2.79
2016-12-07T02:14:58.407Z,2.77
2016-12-07T02:15:43.500Z,2.79
2016-12-07T02:16:43.520Z,2.78
2016-12-07T02:17:43.535Z,2.82
2016-12-07T02:18:43.552Z,2.82
2016-12-07T02:19:43.566Z,2.89
2016-12-07T02:20:43.636Z,2.81
2016-12-07T02:21:43.599Z,2.79
2016-12-07T02:22:43.610Z,2.84
2016-12-07T02:23:43.630Z,2.85
2016-12-07T02:24:43.645Z,2.92
2016-12-07T02:25:43.666Z,2.9
2016-12-07T02:26:43.678Z,2.84
2016-12-07T02:27:43.699Z,2.77
2016-12-07T02:28:58.632Z,2.75
2016-12-07T02:29:58.650Z,2.78
2016-12-07T02:30:43.800Z,2.87
2016-12-07T02:31:43.766Z,2.82
2016-12-07T02:32:43.772Z,2.78
2016-12-07T02:33:43.794Z,2.78
2016-12-07T02:34:43.807Z,2.78
2016-12-07T02:35:43.818Z,2.89
2016-12-07T02:36:43.888Z,2.87
2016-12-07T02:37:43.858Z,2.81
2016-12-07T02:38:43.872Z,2.89
2016-12-07T02:39:43.891Z,2.89
2016-12-07T02:40:44.002Z,2.78
2016-12-07T02:41:43.924Z,2.82
2016-12-07T02:42:43.938Z,2.89
2016-12-07T02:43:43.952Z,2.9
2016-12-07T02:44:43.974Z,2.9
2016-12-07T02:45:43.988Z,2.95
2016-12-07T02:46:43.998Z,2.97
2016-12-07T02:47:44.018Z,2.97
2016-12-07T02:48:44.034Z,2.97
2016-12-07T02:49:44.048Z,3.03
2016-12-07T02:50:44.364Z,3
2016-12-07T02:51:44.387Z,2.92
2016-12-07T02:52:44.102Z,2.92
2016-12-07T02:53:44.116Z,2.93
2016-12-07T02:54:44.142Z,2.92
2016-12-07T02:55:44.145Z,2.85
2016-12-07T02:57:44.176Z,2.95
2016-12-07T02:58:44.194Z,2.9
2016-12-07T03:00:59.150Z,2.92
2016-12-07T03:01:44.245Z,2.97
2016-12-07T03:02:44.257Z,3.02
2016-12-07T03:03:44.280Z,3.06
2016-12-07T03:04:44.595Z,2.95
2016-12-07T03:05:44.311Z,3
2016-12-07T03:06:44.330Z,2.95
2016-12-07T03:07:44.345Z,2.96
2016-12-07T03:08:44.357Z,2.9
2016-12-07T03:09:44.373Z,2.92
2016-12-07T03:10:44.387Z,2.92
2016-12-07T03:11:44.417Z,2.92
2016-12-07T03:12:44.418Z,2.93
2016-12-07T03:14:44.750Z,2.93
2016-12-07T03:15:44.474Z,2.96
2016-12-07T03:16:59.410Z,2.96
2016-12-07T03:17:44.507Z,2.95
2016-12-07T03:18:44.518Z,2.96
2016-12-07T03:19:44.532Z,2.97
2016-12-07T03:20:44.557Z,2.97
2016-12-07T03:21:44.563Z,3.03
2016-12-07T03:22:44.590Z,2.99
2016-12-07T03:23:44.595Z,3.08
2016-12-07T03:24:44.616Z,3.11
2016-12-07T03:25:44.625Z,3.05
2016-12-07T03:26:59.575Z,3.02
2016-12-07T03:27:44.667Z,2.89
2016-12-07T03:28:44.681Z,2.99
2016-12-07T03:29:44.696Z,2.95
2016-12-07T03:30:44.711Z,3
2016-12-07T03:31:44.725Z,2.95
2016-12-07T03:32:59.665Z,2.99
2016-12-07T03:33:44.761Z,3.03
2016-12-07T03:34:44.780Z,3.02
2016-12-07T03:35:44.791Z,2.97
2016-12-07T03:36:44.811Z,2.96
2016-12-07T03:39:16.968Z,3.03
2016-12-07T03:40:16.834Z,3.06
2016-12-07T03:41:16.852Z,2.97
2016-12-07T03:42:16.868Z,2.95
2016-12-07T03:43:16.885Z,2.96
2016-12-07T03:44:16.901Z,3
2016-12-07T03:46:31.854Z,3.06
2016-12-07T03:47:31.871Z,3.08
2016-12-07T03:48:31.885Z,3
2016-12-07T03:49:16.981Z,3.05
2016-12-07T03:50:17.000Z,2.95
2016-12-07T03:51:17.017Z,3.03
2016-12-07T03:52:17.025Z,3.03
2016-12-07T03:53:17.145Z,2.96
2016-12-07T03:54:17.060Z,2.99
2016-12-07T03:55:17.080Z,2.96
2016-12-07T03:56:17.093Z,2.95
2016-12-07T03:58:17.125Z,2.93
2016-12-07T03:59:17.143Z,2.9
2016-12-07T04:00:17.154Z,3.02
2016-12-07T04:01:32.099Z,2.92
2016-12-07T04:02:17.195Z,2.96
2016-12-07T04:03:32.128Z,2.9
2016-12-07T04:04:17.225Z,2.92
2016-12-07T04:05:17.239Z,3
2016-12-07T04:06:17.254Z,2.92
2016-12-07T04:07:17.275Z,2.95
2016-12-07T04:08:17.289Z,2.93
2016-12-07T04:09:17.358Z,2.92
2016-12-07T04:10:17.324Z,2.9
2016-12-07T04:11:17.338Z,2.93
2016-12-07T04:12:17.353Z,2.93
2016-12-07T04:13:17.366Z,2.85
2016-12-07T04:14:17.702Z,2.79
2016-12-07T04:15:17.407Z,2.81
2016-12-07T04:16:17.413Z,2.87
2016-12-07T04:17:17.437Z,2.75
2016-12-07T04:18:17.449Z,2.81
2016-12-07T04:19:17.470Z,2.85
2016-12-07T04:20:17.485Z,2.79
2016-12-07T04:21:17.594Z,2.93
2016-12-07T04:22:17.512Z,2.82
2016-12-07T04:23:17.531Z,2.84
2016-12-07T04:24:17.850Z,2.87
2016-12-07T04:25:17.570Z,2.77
2016-12-07T04:26:17.578Z,2.89
2016-12-07T04:27:17.594Z,2.84
2016-12-07T04:28:17.609Z,2.93
2016-12-07T04:29:17.657Z,2.84
2016-12-07T04:31:32.583Z,2.81
2016-12-07T04:32:32.597Z,2.79
2016-12-07T04:33:32.612Z,2.78
2016-12-07T04:34:32.629Z,2.84
2016-12-07T04:35:32.649Z,2.85
2016-12-07T04:36:17.742Z,2.9
2016-12-07T04:37:17.754Z,2.87
2016-12-07T04:38:17.772Z,2.84
2016-12-07T04:39:17.789Z,2.92
2016-12-07T04:40:17.805Z,2.84
2016-12-07T04:41:17.821Z,2.89
2016-12-07T04:42:17.834Z,2.84
2016-12-07T04:43:17.853Z,2.79
2016-12-07T04:44:17.866Z,2.79
2016-12-07T04:45:17.880Z,2.79
2016-12-07T04:47:17.914Z,2.79
2016-12-07T04:48:17.928Z,2.78
2016-12-07T04:49:32.870Z,2.89
2016-12-07T04:50:17.966Z,2.85
2016-12-07T04:51:32.901Z,2.81
2016-12-07T04:52:17.997Z,2.87
2016-12-07T04:53:18.019Z,2.84
2016-12-07T04:54:18.024Z,2.81
2016-12-07T04:55:18.353Z,2.79
2016-12-07T04:56:18.057Z,2.89
2016-12-07T04:57:18.109Z,2.84
2016-12-07T04:58:18.095Z,2.89
2016-12-07T04:59:18.109Z,2.87
2016-12-07T05:00:18.122Z,2.82
2016-12-07T05:01:18.139Z,2.81
2016-12-07T05:02:18.152Z,2.84
2016-12-07T05:03:33.095Z,2.82
2016-12-07T05:04:18.187Z,2.79
2016-12-07T05:05:18.201Z,2.79
2016-12-07T05:06:18.220Z,2.82
2016-12-07T05:07:33.155Z,2.75
2016-12-07T05:08:18.253Z,2.75
2016-12-07T05:09:18.263Z,2.79
2016-12-07T05:10:18.332Z,2.84
2016-12-07T05:11:18.303Z,2.82
2016-12-07T05:12:18.316Z,2.77
2016-12-07T05:13:18.343Z,2.75
2016-12-07T05:14:18.344Z,2.77
2016-12-07T05:15:18.413Z,2.79
2016-12-07T05:16:18.407Z,2.82
2016-12-07T05:17:18.443Z,2.82
2016-12-07T05:18:18.408Z,2.82
2016-12-07T05:19:18.426Z,2.79
2016-12-07T05:20:33.364Z,2.75
2016-12-07T05:21:18.460Z,2.78
2016-12-07T05:22:18.471Z,2.81
2016-12-07T05:23:33.410Z,2.93
2016-12-07T05:24:18.506Z,2.87
2016-12-07T05:25:18.520Z,2.79
2016-12-07T05:26:18.539Z,2.92
2016-12-07T05:27:18.553Z,2.9
2016-12-07T05:28:18.572Z,2.82
2016-12-07T05:29:18.582Z,2.71
2016-12-07T05:30:18.599Z,2.75
2016-12-07T05:31:18.617Z,2.84
2016-12-07T05:32:18.630Z,2.81
2016-12-07T05:33:18.651Z,2.85
2016-12-07T05:34:18.663Z,2.79
2016-12-07T05:35:18.679Z,2.81
2016-12-07T05:36:18.711Z,2.78
2016-12-07T05:37:18.710Z,2.69
2016-12-07T05:38:33.652Z,2.74
2016-12-07T05:39:18.751Z,2.69
2016-12-07T05:40:18.757Z,2.69
2016-12-07T05:41:19.100Z,2.6
2016-12-07T05:42:18.794Z,2.72
2016-12-07T05:43:18.810Z,2.67
2016-12-07T05:44:18.826Z,2.85
2016-12-07T05:45:18.841Z,2.81
2016-12-07T05:46:18.863Z,2.67
2016-12-07T05:47:18.878Z,2.77
2016-12-07T05:48:18.886Z,2.78
2016-12-07T05:49:18.903Z,2.81
2016-12-07T05:50:18.917Z,2.85
2016-12-07T05:51:33.860Z,2.79
2016-12-07T05:52:18.951Z,2.74
2016-12-07T05:53:18.976Z,2.77
2016-12-07T05:54:18.983Z,2.78
2016-12-07T05:55:18.999Z,2.74
2016-12-07T05:56:19.014Z,2.69
2016-12-07T05:57:19.034Z,2.72
2016-12-07T05:58:19.051Z,2.64
2016-12-07T05:59:19.068Z,2.72
2016-12-07T06:00:19.076Z,2.66
2016-12-07T06:01:19.094Z,2.71
2016-12-07T06:02:19.113Z,2.72
2016-12-07T06:03:19.129Z,2.77
2016-12-07T06:04:19.143Z,2.74
2016-12-07T06:08:19.210Z,2.67
2016-12-07T06:09:19.223Z,2.67
2016-12-07T06:10:34.158Z,2.77
2016-12-07T06:11:19.252Z,2.63
2016-12-07T06:12:19.272Z,2.69
2016-12-07T06:13:19.309Z,2.81
2016-12-07T06:14:19.300Z,2.72
2016-12-07T06:15:19.322Z,2.69
2016-12-07T06:16:19.333Z,2.69
2016-12-07T06:17:19.347Z,2.71
2016-12-07T06:18:19.366Z,2.69
2016-12-07T06:20:19.394Z,2.67
2016-12-07T06:21:19.413Z,2.74
2016-12-07T06:22:19.432Z,2.64
2016-12-07T06:23:19.445Z,2.72
2016-12-07T06:24:19.462Z,2.66
2016-12-07T06:25:19.482Z,2.71
2016-12-07T06:26:34.415Z,2.56
2016-12-07T06:27:19.821Z,2.49
2016-12-07T06:28:19.525Z,2.56
2016-12-07T06:29:19.541Z,2.64
2016-12-07T06:30:19.557Z,2.48
2016-12-07T06:31:19.571Z,2.45
2016-12-07T06:32:19.592Z,2.43
2016-12-07T06:33:19.612Z,2.57
2016-12-07T06:34:19.649Z,2.45
2016-12-07T06:35:19.634Z,2.42
2016-12-07T06:36:19.652Z,2.36
2016-12-07T06:37:19.977Z,2.3
2016-12-07T06:39:19.696Z,2.39
2016-12-07T06:40:19.710Z,2.45
2016-12-07T06:41:19.732Z,2.43
2016-12-07T06:42:34.668Z,2.43
2016-12-07T06:43:34.680Z,2.36
2016-12-07T06:44:19.793Z,2.48
2016-12-07T06:45:19.793Z,2.48
2016-12-07T06:46:20.119Z,2.54
2016-12-07T06:47:19.824Z,2.45
2016-12-07T06:48:19.843Z,2.45
2016-12-07T06:49:19.858Z,2.49
2016-12-07T06:50:19.871Z,2.38
2016-12-07T06:51:19.892Z,2.48
2016-12-07T06:52:19.903Z,2.41
2016-12-07T06:53:19.920Z,2.41
2016-12-07T06:54:19.932Z,2.31
2016-12-07T06:55:19.954Z,2.31
2016-12-07T06:56:19.968Z,2.3
2016-12-07T06:57:19.984Z,2.28
2016-12-07T06:58:34.920Z,2.34
2016-12-07T06:59:34.932Z,2.3
2016-12-07T07:00:20.032Z,2.23
2016-12-07T07:01:20.044Z,2.18
2016-12-07T07:02:20.081Z,2.16
2016-12-07T07:03:20.080Z,2.21
2016-12-07T07:04:20.090Z,2.24
2016-12-07T07:05:20.112Z,2.24
2016-12-07T07:06:20.128Z,2.14
2016-12-07T07:07:20.137Z,2.2
2016-12-07T07:08:20.153Z,2.21
2016-12-07T07:09:20.170Z,2.2
2016-12-07T07:10:20.186Z,2.23
2016-12-07T07:11:20.205Z,2.28
2016-12-07T07:12:35.140Z,2.25
2016-12-07T07:13:35.156Z,2.25
2016-12-07T07:14:35.170Z,2.16
2016-12-07T07:15:20.267Z,2.17
2016-12-07T07:16:20.285Z,2.1
2016-12-07T07:17:20.294Z,2.23
2016-12-07T07:18:20.310Z,2.1
2016-12-07T07:19:20.327Z,2.1
2016-12-07T07:20:20.348Z,2.12
2016-12-07T07:21:20.361Z,2.1
2016-12-07T07:22:20.378Z,2.14
2016-12-07T07:23:20.389Z,2.09
2016-12-07T07:24:20.405Z,2.06
2016-12-07T07:25:20.423Z,2.09
2016-12-07T07:26:20.437Z,2.12
2016-12-07T07:27:20.457Z,2.17
2016-12-07T07:28:20.473Z,2.03
2016-12-07T07:29:20.488Z,2.06
2016-12-07T07:30:20.501Z,2.02
2016-12-07T07:31:20.518Z,2.06
2016-12-07T07:32:20.533Z,1.98
2016-12-07T07:33:20.550Z,1.98
2016-12-07T07:34:20.565Z,2.02
2016-12-07T07:35:20.584Z,1.98
2016-12-07T07:36:20.600Z,2
2016-12-07T07:37:20.611Z,2.02
2016-12-07T07:38:20.626Z,2
2016-12-07T07:39:20.646Z,1.91
2016-12-07T07:40:20.656Z,1.99
2016-12-07T07:41:20.675Z,1.91
2016-12-07T07:42:20.686Z,2.06
2016-12-07T07:43:20.704Z,2.03
2016-12-07T07:44:20.722Z,1.99
2016-12-07T07:45:35.661Z,2.03
2016-12-07T07:46:20.754Z,2.03
2016-12-07T07:48:20.783Z,2.1
2016-12-07T07:49:20.801Z,2.05
2016-12-07T07:50:20.821Z,2.1
2016-12-07T07:51:20.833Z,2.14
2016-12-07T07:52:20.850Z,2.16
2016-12-07T07:53:20.864Z,2.1
2016-12-07T07:54:20.877Z,1.98
2016-12-07T07:55:20.894Z,2.07
2016-12-07T07:56:20.906Z,2.09
2016-12-07T07:57:20.921Z,2.07
2016-12-07T07:58:20.952Z,2.07
2016-12-07T07:59:20.955Z,2.12
2016-12-07T08:00:20.975Z,2.09
2016-12-07T08:01:35.910Z,2.2
2016-12-07T08:02:35.926Z,2.17
2016-12-07T08:03:21.024Z,2.25
2016-12-07T08:04:21.034Z,2.16
2016-12-07T08:05:21.047Z,2.2
2016-12-07T08:06:21.070Z,2.23
2016-12-07T08:07:21.082Z,2.31
2016-12-07T08:08:21.100Z,2.23
2016-12-07T08:09:21.124Z,2.28
2016-12-07T08:10:21.137Z,2.39
2016-12-07T08:11:21.145Z,2.39
2016-12-07T08:12:21.167Z,2.49
2016-12-07T08:13:21.177Z,2.52
2016-12-07T08:15:36.132Z,2.49
2016-12-07T08:16:36.180Z,2.45
2016-12-07T08:17:36.164Z,2.49
2016-12-07T08:18:36.177Z,2.54
2016-12-07T08:19:21.269Z,2.61
2016-12-07T08:20:21.293Z,2.52
2016-12-07T08:21:21.312Z,2.63
2016-12-07T08:22:21.325Z,2.53
2016-12-07T08:23:21.339Z,2.48
2016-12-07T08:24:21.356Z,2.45
2016-12-07T08:25:21.372Z,2.49
2016-12-07T08:26:21.382Z,2.53
2016-12-07T08:27:21.402Z,2.63
2016-12-07T08:28:21.413Z,2.61
2016-12-07T08:29:21.431Z,2.59
2016-12-07T08:30:21.444Z,2.59
2016-12-07T08:31:21.462Z,2.67
2016-12-07T08:32:36.403Z,2.71
2016-12-07T08:33:36.415Z,2.71
2016-12-07T08:34:21.517Z,2.75
2016-12-07T08:35:21.530Z,2.77
2016-12-07T08:36:21.538Z,2.67
2016-12-07T08:37:21.561Z,2.77
2016-12-07T08:38:21.580Z,2.79
2016-12-07T08:39:21.587Z,2.81
2016-12-07T08:40:21.606Z,2.78
2016-12-07T08:41:21.643Z,2.74
2016-12-07T08:42:21.639Z,2.84
2016-12-07T08:43:21.656Z,2.9
2016-12-07T08:44:21.671Z,2.82
2016-12-07T08:45:21.685Z,2.78
2016-12-07T08:47:22.031Z,2.78
2016-12-07T08:48:36.657Z,2.75
2016-12-07T08:49:21.748Z,2.75
2016-12-07T08:50:21.769Z,2.78
2016-12-07T08:51:21.783Z,2.79
2016-12-07T08:52:21.804Z,2.79
2016-12-07T08:53:21.815Z,2.77
2016-12-07T08:54:21.831Z,2.77
2016-12-07T08:55:21.842Z,2.82
2016-12-07T08:56:21.870Z,2.81
2016-12-07T08:57:21.905Z,2.78
2016-12-07T08:58:21.901Z,2.84
2016-12-07T08:59:21.914Z,2.82
2016-12-07T09:00:21.930Z,2.89
2016-12-07T09:03:22.018Z,2.97
2016-12-07T09:04:21.994Z,3.02
2016-12-07T09:06:22.032Z,3.06
2016-12-07T09:07:22.045Z,3.05
2016-12-07T09:08:22.086Z,3.06
2016-12-07T09:09:22.080Z,3.11
2016-12-07T09:10:22.098Z,3.18
2016-12-07T09:11:22.114Z,3.11
2016-12-07T09:12:22.127Z,3.17
2016-12-07T09:13:22.143Z,3.17
2016-12-07T09:14:22.157Z,3.18
2016-12-07T09:15:22.178Z,3.15
2016-12-07T09:17:37.131Z,3.29
2016-12-07T09:18:22.230Z,3.29
2016-12-07T09:19:22.243Z,3.33
2016-12-07T09:20:37.183Z,3.4
2016-12-07T09:21:22.276Z,3.51
2016-12-07T09:22:22.295Z,3.61
2016-12-07T09:24:22.331Z,3.66
2016-12-07T09:25:22.343Z,3.76
2016-12-07T09:26:22.359Z,3.7
2016-12-07T09:27:22.425Z,3.72
2016-12-07T09:28:22.394Z,3.76
2016-12-07T09:29:22.409Z,3.73
2016-12-07T09:30:22.449Z,3.69
2016-12-07T09:31:37.368Z,3.7
2016-12-07T09:32:22.455Z,3.69
2016-12-07T09:33:22.475Z,3.7
2016-12-07T09:34:22.490Z,3.61
2016-12-07T09:35:22.531Z,3.61
2016-12-07T09:36:37.456Z,3.6
2016-12-07T09:37:22.543Z,3.58
2016-12-07T09:38:37.479Z,3.6
2016-12-07T09:39:37.500Z,3.62
2016-12-07T09:40:22.597Z,3.57
2016-12-07T09:41:22.607Z,3.62
2016-12-07T09:42:22.624Z,3.58
2016-12-07T09:43:22.644Z,3.6
2016-12-07T09:44:22.654Z,3.48
2016-12-07T09:45:22.678Z,3.55
2016-12-07T09:46:22.695Z,3.55
2016-12-07T09:47:22.761Z,3.6
2016-12-07T09:49:22.747Z,3.52
2016-12-07T09:50:22.758Z,3.54
2016-12-07T09:51:22.803Z,3.48
2016-12-07T09:52:37.720Z,3.5
2016-12-07T09:53:22.816Z,3.31
2016-12-07T09:54:22.834Z,3.36
2016-12-07T09:55:22.847Z,3.48
2016-12-07T09:56:22.868Z,3.45
2016-12-07T09:57:37.814Z,3.52
2016-12-07T09:58:22.892Z,3.5
2016-12-07T09:59:22.915Z,3.5
2016-12-07T10:00:22.927Z,3.45
2016-12-07T10:01:22.951Z,3.35
2016-12-07T10:02:23.267Z,3.39
2016-12-07T10:03:22.979Z,3.43
2016-12-07T10:04:23.001Z,3.43
2016-12-07T10:06:23.032Z,3.36
2016-12-07T10:07:23.048Z,3.32
2016-12-07T10:08:37.988Z,3.28
2016-12-07T10:09:23.083Z,3.31
2016-12-07T10:10:23.103Z,3.4
2016-12-07T10:11:23.115Z,3.33
2016-12-07T10:13:23.154Z,3.5
2016-12-07T10:14:23.169Z,3.42
2016-12-07T10:15:23.187Z,3.54
2016-12-07T10:16:23.203Z,3.5
2016-12-07T10:17:23.214Z,3.52
2016-12-07T10:18:23.231Z,3.51
2016-12-07T10:19:23.278Z,3.5
2016-12-07T10:20:23.274Z,3.54
2016-12-07T10:21:38.210Z,3.4
2016-12-07T10:22:38.242Z,3.5
2016-12-07T10:23:38.243Z,3.65
2016-12-07T10:24:23.345Z,3.62
2016-12-07T10:25:23.358Z,3.6
2016-12-07T10:26:23.369Z,3.65
2016-12-07T10:27:23.400Z,3.58
2016-12-07T10:28:23.413Z,3.75
2016-12-07T10:29:23.722Z,3.72
2016-12-07T10:30:23.436Z,3.73
2016-12-07T10:31:23.458Z,3.79
2016-12-07T10:32:23.470Z,3.73
2016-12-07T10:33:23.490Z,3.73
2016-12-07T10:34:23.503Z,3.83
2016-12-07T10:36:23.543Z,3.78
2016-12-07T10:37:23.556Z,3.83
2016-12-07T10:38:23.578Z,3.91
2016-12-07T10:39:23.602Z,3.91
2016-12-07T10:40:23.608Z,3.91
2016-12-07T10:41:23.627Z,3.88
2016-12-07T10:42:23.641Z,3.91
2016-12-07T10:43:23.661Z,3.91
2016-12-07T10:44:23.680Z,3.9
2016-12-07T10:45:23.707Z,3.84
2016-12-07T10:46:23.710Z,3.84
2016-12-07T10:47:23.726Z,3.79
2016-12-07T10:48:23.745Z,3.9
2016-12-07T10:49:23.768Z,4.02
2016-12-07T10:50:23.781Z,3.98
2016-12-07T10:54:23.850Z,3.9
2016-12-07T10:55:38.792Z,3.9
2016-12-07T10:56:38.806Z,3.94
2016-12-07T10:57:23.899Z,3.9
2016-12-07T10:58:38.837Z,3.88
2016-12-07T10:59:23.931Z,3.91
2016-12-07T11:00:23.952Z,3.9
2016-12-07T11:01:23.967Z,3.84
2016-12-07T11:02:23.982Z,3.79
2016-12-07T11:03:24.003Z,3.9
2016-12-07T11:04:24.020Z,3.96
2016-12-07T11:05:24.039Z,3.93
2016-12-07T11:06:24.057Z,3.93
2016-12-07T11:07:24.070Z,4.02
2016-12-07T11:08:24.095Z,4
2016-12-07T11:09:39.030Z,3.88
2016-12-07T11:10:24.123Z,3.91
2016-12-07T11:11:39.059Z,3.97
2016-12-07T11:12:24.162Z,3.93
2016-12-07T11:14:24.188Z,3.98
2016-12-07T11:15:24.509Z,3.94
2016-12-07T11:16:24.220Z,3.98
2016-12-07T11:17:24.245Z,4.05
2016-12-07T11:18:24.258Z,3.96
2016-12-07T11:19:24.583Z,3.9
2016-12-07T11:20:24.289Z,4
2016-12-07T11:21:24.316Z,4.05
2016-12-07T11:22:24.325Z,4.06
2016-12-07T11:24:39.589Z,4.2
2016-12-07T11:25:24.381Z,4.14
2016-12-07T11:26:24.397Z,4.06
2016-12-07T11:27:39.337Z,4.15
2016-12-07T11:28:24.430Z,4.2
2016-12-07T11:29:24.452Z,4.26
2016-12-07T11:30:24.466Z,4.4
2016-12-07T11:31:24.790Z,4.36
2016-12-07T11:32:24.496Z,4.4
2016-12-07T11:33:24.529Z,4.34
2016-12-07T11:34:24.533Z,4.22
2016-12-07T11:35:24.552Z,4.29
2016-12-07T11:36:24.561Z,4.22
2016-12-07T11:37:24.583Z,4.23
2016-12-07T11:38:24.598Z,4.3
2016-12-07T11:39:24.631Z,4.27
2016-12-07T11:40:24.633Z,4.3
2016-12-07T11:41:24.658Z,4.36
2016-12-07T11:42:39.594Z,4.44
2016-12-07T11:43:39.608Z,4.45
2016-12-07T11:44:24.706Z,4.44
2016-12-07T11:45:24.725Z,4.5
2016-12-07T11:46:24.735Z,4.47
2016-12-07T11:47:24.758Z,4.52
2016-12-07T11:48:24.806Z,4.63
2016-12-07T11:49:24.784Z,4.6
2016-12-07T11:50:24.810Z,4.59
2016-12-07T11:51:24.819Z,4.66
2016-12-07T11:52:24.837Z,4.69
2016-12-07T11:53:24.859Z,4.66
2016-12-07T11:54:25.172Z,4.69
2016-12-07T11:55:24.889Z,4.69
2016-12-07T11:56:24.914Z,4.72
2016-12-07T11:57:39.853Z,4.67
2016-12-07T11:58:39.868Z,4.65
2016-12-07T11:59:24.966Z,4.55
2016-12-07T12:00:39.902Z,4.66
2016-12-07T12:01:25.003Z,4.62
2016-12-07T12:02:25.014Z,4.69
2016-12-07T12:03:25.038Z,4.62
2016-12-07T12:04:25.049Z,4.58
2016-12-07T12:06:25.084Z,4.62
2016-12-07T12:07:25.102Z,4.67
2016-12-07T12:08:25.127Z,4.62
2016-12-07T12:09:25.137Z,4.65
2016-12-07T12:10:25.154Z,4.58
2016-12-07T12:11:25.176Z,4.58
2016-12-07T12:13:25.207Z,4.58
2016-12-07T12:14:40.146Z,4.65
2016-12-07T12:15:25.240Z,4.63
2016-12-07T12:16:25.261Z,4.62
2016-12-07T12:17:25.277Z,4.67
2016-12-07T12:18:25.298Z,4.67
2016-12-07T12:19:25.319Z,4.7
2016-12-07T12:20:25.336Z,4.78
2016-12-07T12:21:25.344Z,4.85
2016-12-07T12:22:25.369Z,4.91
2016-12-07T12:23:25.383Z,4.86
2016-12-07T12:24:25.428Z,5.03
2016-12-07T12:25:25.420Z,5.13
2016-12-07T12:26:25.437Z,5.15
2016-12-07T12:27:25.448Z,5.35
2016-12-07T12:28:25.471Z,5.31
2016-12-07T12:29:25.484Z,5.35
2016-12-07T12:30:40.431Z,5.48
2016-12-07T12:31:25.525Z,5.48
2016-12-07T12:32:25.541Z,5.57
2016-12-07T12:33:25.562Z,5.51
2016-12-07T12:34:25.579Z,5.54
2016-12-07T12:35:25.596Z,5.54
2016-12-07T12:36:25.613Z,5.56
2016-12-07T12:37:25.635Z,5.54
2016-12-07T12:38:25.652Z,5.65
2016-12-07T12:39:25.670Z,5.61
2016-12-07T12:40:25.687Z,5.54
2016-12-07T12:41:25.707Z,5.63
2016-12-07T12:42:25.718Z,5.63
2016-12-07T12:43:25.747Z,5.64
2016-12-07T12:44:40.681Z,5.64
2016-12-07T12:45:25.775Z,5.57
2016-12-07T12:46:40.719Z,5.49
2016-12-07T12:47:25.823Z,5.38
2016-12-07T12:48:25.824Z,5.45
2016-12-07T12:49:25.845Z,5.46
2016-12-07T12:50:25.863Z,5.43
2016-12-07T12:51:25.883Z,5.49
2016-12-07T12:52:25.902Z,5.43
2016-12-07T12:53:25.930Z,5.46
2016-12-07T12:54:25.986Z,5.49
2016-12-07T12:56:25.968Z,5.4
2016-12-07T12:57:26.005Z,5.53
2016-12-07T12:58:26.005Z,5.43
2016-12-07T12:59:26.333Z,5.38
2016-12-07T13:00:26.042Z,5.45
2016-12-07T13:01:26.065Z,5.43
2016-12-07T13:02:41.000Z,5.38
2016-12-07T13:03:26.101Z,5.43
2016-12-07T13:04:26.113Z,5.35
2016-12-07T13:05:26.137Z,5.36
2016-12-07T13:06:26.149Z,5.35
2016-12-07T13:07:26.163Z,5.43
2016-12-07T13:08:26.184Z,5.4
2016-12-07T13:09:26.206Z,5.49
2016-12-07T13:10:26.225Z,5.49
2016-12-07T13:11:26.241Z,5.53
2016-12-07T13:12:26.252Z,5.54
2016-12-07T13:13:26.279Z,5.56
2016-12-07T13:14:26.289Z,5.58
2016-12-07T13:15:26.307Z,5.56
2016-12-07T13:16:26.324Z,5.49
2016-12-07T13:17:26.347Z,5.45
2016-12-07T13:18:41.283Z,5.39
2016-12-07T13:19:41.302Z,5.4
2016-12-07T13:20:26.402Z,5.35
2016-12-07T13:21:26.421Z,5.36
2016-12-07T13:22:26.431Z,5.27
2016-12-07T13:23:26.451Z,5.33
2016-12-07T13:24:26.771Z,5.35
2016-12-07T13:25:26.482Z,5.33
2016-12-07T13:26:26.501Z,5.3
2016-12-07T13:27:26.527Z,5.28
2016-12-07T13:28:26.537Z,5.3
2016-12-07T13:29:26.563Z,5.3
2016-12-07T13:30:26.572Z,5.27
2016-12-07T13:31:26.598Z,5.28
2016-12-07T13:32:26.611Z,5.31
2016-12-07T13:33:41.549Z,5.28
2016-12-07T13:34:41.569Z,5.33
2016-12-07T13:35:26.668Z,5.31
2016-12-07T13:36:26.681Z,5.28
2016-12-07T13:37:26.701Z,5.3
2016-12-07T13:38:26.723Z,5.4
2016-12-07T13:39:26.736Z,5.33
2016-12-07T13:40:26.755Z,5.25
2016-12-07T13:41:26.776Z,5.13
2016-12-07T13:42:26.788Z,5.15
2016-12-07T13:43:26.812Z,5.12
2016-12-07T13:44:26.818Z,5.1
2016-12-07T13:45:26.840Z,5.04
2016-12-07T13:46:26.864Z,5.07
2016-12-07T13:47:26.881Z,5.1
2016-12-07T13:48:26.894Z,4.99
2016-12-07T13:49:41.834Z,5.02
2016-12-07T13:50:26.932Z,4.94
2016-12-07T13:51:26.982Z,4.8
2016-12-07T13:52:26.969Z,4.84
2016-12-07T13:53:26.981Z,4.7
2016-12-07T13:54:27.002Z,4.86
2016-12-07T13:55:27.020Z,4.7
2016-12-07T13:57:27.054Z,4.82
2016-12-07T13:58:27.069Z,4.8
2016-12-07T13:59:27.085Z,4.66
2016-12-07T14:00:27.105Z,4.7
2016-12-07T14:01:27.126Z,4.72
2016-12-07T14:02:27.141Z,4.73
2016-12-07T14:03:27.163Z,4.72
2016-12-07T14:04:27.477Z,4.84
2016-12-07T14:05:42.119Z,4.8